createdAt,value
2024-01-18T00:02:27.449Z,20.97
2024-01-18T00:05:15.364Z,20.90
2024-01-18T00:08:02.072Z,18.07
2024-01-18T00:10:51.548Z,21.20
2024-01-18T00:13:38.773Z,22.07
2024-01-18T00:16:25.981Z,20.37
2024-01-18T00:19:14.371Z,22.40
2024-01-18T00:22:00.901Z,16.27
2024-01-18T00:24:50.241Z,27.60
2024-01-18T00:27:37.253Z,22.70
2024-01-18T00:30:24.311Z,20.57
2024-01-18T00:33:16.799Z,19.40
2024-01-18T00:36:11.135Z,21.50
2024-01-18T00:38:57.975Z,16.33
2024-01-18T00:41:45.163Z,17.83
2024-01-18T00:44:31.696Z,19.27
2024-01-18T00:47:21.457Z,15.50
2024-01-18T00:50:09.273Z,15.93
2024-01-18T00:53:02.024Z,18.30
2024-01-18T00:55:50.948Z,21.70
2024-01-18T00:58:37.600Z,23.47
2024-01-18T01:01:27.064Z,16.83
2024-01-18T01:04:16.826Z,17.87
2024-01-18T01:07:06.571Z,19.83
2024-01-18T01:09:54.441Z,15.43
2024-01-18T01:12:43.651Z,20.23
2024-01-18T01:15:32.582Z,24.57
2024-01-18T01:18:21.880Z,16.10
2024-01-18T01:21:19.944Z,15.50
2024-01-18T01:24:09.378Z,18.23
2024-01-18T01:27:01.767Z,17.07
2024-01-18T01:29:51.085Z,21.17
2024-01-18T01:32:40.493Z,18.03
2024-01-18T01:35:29.965Z,20.17
2024-01-18T01:38:23.162Z,17.07
2024-01-18T01:41:14.671Z,27.43
2024-01-18T01:44:04.260Z,19.70
2024-01-18T01:46:52.037Z,17.70
2024-01-18T01:49:40.826Z,14.60
2024-01-18T01:52:36.543Z,18.20
2024-01-18T01:55:29.304Z,23.63
2024-01-18T01:58:24.007Z,16.83
2024-01-18T02:01:12.855Z,18.43
2024-01-18T02:03:59.824Z,17.27
2024-01-18T02:06:50.079Z,17.93
2024-01-18T02:09:39.542Z,18.03
2024-01-18T02:12:28.941Z,18.23
2024-01-18T02:15:15.727Z,17.67
2024-01-18T02:18:07.233Z,18.33
2024-01-18T02:20:56.459Z,17.57
2024-01-18T02:23:47.208Z,16.80
2024-01-18T02:26:40.224Z,21.33
2024-01-18T02:29:29.587Z,21.70
2024-01-18T02:32:16.578Z,14.70
2024-01-18T02:35:05.876Z,18.20
2024-01-18T02:37:53.187Z,15.87
2024-01-18T02:40:41.953Z,17.30
2024-01-18T02:43:35.128Z,16.20
2024-01-18T02:46:24.615Z,19.07
2024-01-18T02:49:13.947Z,22.00
2024-01-18T02:52:00.637Z,16.10
2024-01-18T02:54:47.430Z,20.30
2024-01-18T02:57:36.671Z,23.33
2024-01-18T03:00:29.772Z,21.03
2024-01-18T03:03:16.567Z,22.07
2024-01-18T03:06:06.030Z,17.03
2024-01-18T03:08:52.964Z,23.13
2024-01-18T03:11:42.318Z,15.17
2024-01-18T03:14:29.346Z,28.17
2024-01-18T03:17:17.823Z,22.40
2024-01-18T03:20:09.411Z,15.57
2024-01-18T03:22:59.288Z,14.63
2024-01-18T03:25:46.102Z,18.70
2024-01-18T03:28:34.051Z,19.70
2024-01-18T03:31:22.088Z,22.43
2024-01-18T03:34:17.934Z,20.33
2024-01-18T03:37:07.378Z,19.80
2024-01-18T03:39:57.889Z,13.77
2024-01-18T03:42:48.057Z,22.63
2024-01-18T03:45:37.167Z,20.57
2024-01-18T03:48:25.229Z,20.17
2024-01-18T03:51:13.457Z,18.93
2024-01-18T03:54:02.111Z,21.97
2024-01-18T03:56:49.546Z,21.73
2024-01-18T03:59:36.360Z,19.23
2024-01-18T04:02:25.942Z,22.30
2024-01-18T04:05:12.463Z,22.03
2024-01-18T04:08:03.059Z,20.77
2024-01-18T04:10:50.082Z,21.80
2024-01-18T04:13:37.002Z,19.73
2024-01-18T04:16:25.115Z,23.17
2024-01-18T04:19:15.388Z,23.27
2024-01-18T04:22:03.170Z,22.17
2024-01-18T04:24:51.718Z,19.07
2024-01-18T04:27:39.225Z,22.03
2024-01-18T04:30:27.350Z,17.13
2024-01-18T04:33:16.656Z,15.63
2024-01-18T04:36:05.935Z,24.70
2024-01-18T04:38:52.818Z,17.00
2024-01-18T04:41:41.546Z,18.77
2024-01-18T04:44:32.232Z,21.57
2024-01-18T04:47:23.391Z,21.07
2024-01-18T04:50:10.864Z,25.17
2024-01-18T04:53:01.391Z,20.13
2024-01-18T04:55:51.190Z,25.87
2024-01-18T04:58:40.959Z,24.43
2024-01-18T05:01:31.479Z,22.23
2024-01-18T05:04:21.809Z,19.27
2024-01-18T05:07:11.735Z,17.93
2024-01-18T05:10:12.444Z,21.90
2024-01-18T05:13:03.531Z,22.77
2024-01-18T05:15:51.676Z,18.93
2024-01-18T05:19:03.764Z,16.53
2024-01-18T05:21:52.837Z,20.90
2024-01-18T05:24:39.849Z,17.80
2024-01-18T05:27:36.002Z,25.50
2024-01-18T05:33:51.355Z,16.77
2024-01-18T05:36:42.348Z,19.70
2024-01-18T05:39:34.459Z,21.00
2024-01-18T05:43:01.417Z,23.83
2024-01-18T05:45:57.589Z,26.23
2024-01-18T05:48:47.149Z,17.07
2024-01-18T05:51:43.125Z,24.80
2024-01-18T05:54:38.700Z,18.13
2024-01-18T05:57:30.605Z,21.80
2024-01-18T06:00:34.671Z,20.47
2024-01-18T06:03:21.582Z,18.13
2024-01-18T06:06:27.406Z,23.90
2024-01-18T06:09:19.859Z,18.63
2024-01-18T06:12:09.794Z,23.90
2024-01-18T06:15:02.325Z,17.17
2024-01-18T06:17:53.542Z,17.23
2024-01-18T06:20:42.919Z,20.23
2024-01-18T06:23:31.621Z,19.07
2024-01-18T06:26:19.446Z,20.70
2024-01-18T06:29:09.038Z,19.40
2024-01-18T06:31:59.292Z,21.00
2024-01-18T06:34:52.411Z,21.20
2024-01-18T06:37:45.344Z,18.23
2024-01-18T06:40:49.298Z,23.33
2024-01-18T06:43:40.635Z,23.87
2024-01-18T06:46:40.685Z,16.93
2024-01-18T06:49:31.047Z,20.70
2024-01-18T06:52:33.838Z,18.57
2024-01-18T06:55:20.431Z,18.13
2024-01-18T06:58:11.178Z,16.43
2024-01-18T07:01:48.812Z,19.73
2024-01-18T07:04:37.847Z,14.17
2024-01-18T07:07:32.468Z,19.43
2024-01-18T07:10:22.818Z,18.73
2024-01-18T07:13:16.233Z,27.17
2024-01-18T07:16:08.014Z,18.37
2024-01-18T07:18:59.240Z,21.27
2024-01-18T07:21:48.427Z,25.63
2024-01-18T07:24:37.208Z,17.83
2024-01-18T07:27:26.448Z,24.80
2024-01-18T07:30:16.713Z,20.70
2024-01-18T07:33:07.327Z,21.80
2024-01-18T07:35:55.238Z,22.10
2024-01-18T07:38:45.596Z,18.40
2024-01-18T07:41:34.656Z,24.80
2024-01-18T07:44:28.887Z,19.67
2024-01-18T07:47:18.182Z,19.47
2024-01-18T07:50:14.184Z,19.90
2024-01-18T07:53:20.252Z,24.50
2024-01-18T07:56:12.359Z,18.80
2024-01-18T07:59:01.122Z,21.70
2024-01-18T08:01:52.295Z,22.27
2024-01-18T08:04:45.643Z,24.60
2024-01-18T08:07:34.735Z,29.47
2024-01-18T08:10:21.606Z,21.60
2024-01-18T08:13:11.889Z,21.77
2024-01-18T08:15:59.798Z,26.67
2024-01-18T08:18:48.238Z,33.70
2024-01-18T08:21:45.722Z,22.00
2024-01-18T08:24:32.758Z,24.23
2024-01-18T08:27:21.871Z,28.00
2024-01-18T08:30:24.658Z,20.43
2024-01-18T08:33:14.168Z,22.83
2024-01-18T08:36:28.090Z,23.00
2024-01-18T08:39:24.404Z,21.40
2024-01-18T08:42:13.969Z,30.23
2024-01-18T08:45:03.511Z,29.23
2024-01-18T08:47:54.818Z,22.63
2024-01-18T08:50:42.149Z,25.00
2024-01-18T08:53:31.531Z,29.43
2024-01-18T08:56:29.416Z,28.33
2024-01-18T08:59:22.672Z,31.73
2024-01-18T09:02:20.314Z,26.67
2024-01-18T09:05:10.498Z,22.60
2024-01-18T09:08:02.768Z,28.23
2024-01-18T09:10:53.414Z,27.07
2024-01-18T09:13:44.257Z,30.30
2024-01-18T09:16:32.667Z,24.80
2024-01-18T09:19:19.408Z,28.37
2024-01-18T09:22:09.214Z,28.83
2024-01-18T09:25:26.232Z,20.73
2024-01-18T09:28:12.683Z,26.00
2024-01-18T09:31:04.560Z,25.03
2024-01-18T09:33:51.618Z,26.23
2024-01-18T09:36:44.887Z,31.37
2024-01-18T09:39:35.055Z,27.03
2024-01-18T09:42:35.054Z,26.27
2024-01-18T09:45:51.744Z,24.97
2024-01-18T09:48:46.572Z,28.43
2024-01-18T09:51:33.764Z,34.10
2024-01-18T09:54:25.533Z,31.13
2024-01-18T09:57:22.410Z,29.10
2024-01-18T10:00:20.075Z,35.03
2024-01-18T10:03:33.199Z,27.83
2024-01-18T10:06:25.220Z,32.13
2024-01-18T10:09:16.251Z,26.83
2024-01-18T10:12:03.596Z,31.93
2024-01-18T10:14:53.232Z,30.70
2024-01-18T10:17:40.917Z,26.10
2024-01-18T10:20:29.149Z,28.23
2024-01-18T10:23:20.211Z,28.47
2024-01-18T10:26:09.955Z,27.87
2024-01-18T10:28:59.712Z,33.00
2024-01-18T10:31:47.670Z,30.47
2024-01-18T10:34:37.255Z,34.53
2024-01-18T10:37:24.861Z,34.40
2024-01-18T10:40:44.587Z,30.77
2024-01-18T10:43:38.730Z,33.60
2024-01-18T10:46:30.734Z,30.50
2024-01-18T10:49:20.139Z,29.80
2024-01-18T10:52:11.292Z,30.00
2024-01-18T10:55:08.305Z,32.93
2024-01-18T10:58:13.885Z,33.40
2024-01-18T11:01:09.557Z,29.03
2024-01-18T11:04:25.847Z,25.87
2024-01-18T11:07:13.527Z,37.33
2024-01-18T11:10:02.494Z,31.57
2024-01-18T11:12:58.774Z,33.00
2024-01-18T11:15:50.711Z,26.50
2024-01-18T11:18:41.194Z,26.70
2024-01-18T11:21:42.405Z,31.17
2024-01-18T11:24:32.066Z,32.80
2024-01-18T11:27:26.254Z,27.50
2024-01-18T11:30:17.406Z,30.40
2024-01-18T11:33:06.004Z,29.07
2024-01-18T11:35:55.218Z,30.97
2024-01-18T11:38:55.990Z,33.67
2024-01-18T11:41:43.374Z,29.23
2024-01-18T11:44:30.543Z,28.80
2024-01-18T11:47:35.739Z,28.07
2024-01-18T11:50:23.896Z,30.87
2024-01-18T11:53:13.719Z,26.43
2024-01-18T11:56:03.901Z,30.10
2024-01-18T11:58:56.044Z,31.50
2024-01-18T12:01:43.421Z,35.73
2024-01-18T12:04:30.172Z,34.30
2024-01-18T12:07:24.574Z,36.97
2024-01-18T12:10:17.630Z,39.43
2024-01-18T12:13:06.969Z,32.07
2024-01-18T12:16:05.786Z,35.20
2024-01-18T12:18:55.678Z,39.30
2024-01-18T12:21:43.512Z,37.03
2024-01-18T12:24:36.147Z,30.87
2024-01-18T12:27:26.023Z,34.87
2024-01-18T12:30:15.806Z,27.07
2024-01-18T12:33:05.387Z,30.63
2024-01-18T12:36:03.446Z,27.20
2024-01-18T12:38:55.522Z,31.33
2024-01-18T12:41:43.888Z,28.13
2024-01-18T12:44:31.526Z,24.00
2024-01-18T12:47:43.304Z,32.77
2024-01-18T12:50:30.452Z,24.37
2024-01-18T12:53:17.714Z,26.43
2024-01-18T12:56:17.439Z,19.50
2024-01-18T12:59:12.028Z,24.73
2024-01-18T13:02:04.066Z,26.10
2024-01-18T13:05:05.645Z,30.47
2024-01-18T13:07:52.727Z,23.57
2024-01-18T13:10:39.817Z,28.27
2024-01-18T13:13:27.452Z,26.60
2024-01-18T13:16:15.717Z,21.20
2024-01-18T13:19:08.561Z,21.67
2024-01-18T13:21:58.974Z,26.37
2024-01-18T13:24:50.432Z,27.33
2024-01-18T13:27:40.873Z,21.00
2024-01-18T13:30:30.193Z,20.53
2024-01-18T13:33:23.299Z,21.60
2024-01-18T13:36:13.113Z,26.27
2024-01-18T13:39:00.404Z,23.60
2024-01-18T13:41:47.703Z,17.90
2024-01-18T13:44:34.803Z,17.17
2024-01-18T13:51:03.807Z,20.83
2024-01-18T13:53:53.433Z,19.00
2024-01-18T13:56:45.446Z,19.47
2024-01-18T13:59:32.447Z,23.10
2024-01-18T14:02:23.949Z,26.47
2024-01-18T14:05:13.176Z,22.70
2024-01-18T14:08:03.007Z,21.37
2024-01-18T14:10:50.650Z,15.23
2024-01-18T14:13:39.575Z,17.23
2024-01-18T14:16:26.140Z,18.17
2024-01-18T14:19:41.060Z,19.50
2024-01-18T14:22:30.350Z,17.90
2024-01-18T14:25:26.260Z,18.43
2024-01-18T14:28:17.574Z,20.33
2024-01-18T14:31:07.790Z,13.67
2024-01-18T14:33:54.763Z,22.90
2024-01-18T14:36:45.548Z,19.03
2024-01-18T14:39:38.229Z,19.47
2024-01-18T14:42:26.857Z,17.20
2024-01-18T14:45:18.782Z,17.10
2024-01-18T14:48:16.772Z,15.43
2024-01-18T14:51:05.593Z,14.93
2024-01-18T14:53:55.247Z,17.77
2024-01-18T14:56:48.808Z,17.90
2024-01-18T14:59:39.259Z,18.27
2024-01-18T15:02:28.177Z,17.73
2024-01-18T15:05:17.345Z,23.40
2024-01-18T15:08:05.660Z,17.33
2024-01-18T15:10:56.499Z,15.97
2024-01-18T15:13:45.704Z,17.13
2024-01-18T15:16:36.045Z,17.30
2024-01-18T15:19:25.020Z,17.87
2024-01-18T15:22:13.504Z,18.87
2024-01-18T15:25:05.463Z,23.27
2024-01-18T15:27:54.774Z,26.77
2024-01-18T15:30:41.772Z,20.03
2024-01-18T15:33:33.818Z,24.67
2024-01-18T15:36:24.560Z,21.27
2024-01-18T15:39:17.312Z,23.73
2024-01-18T15:42:08.045Z,23.87
2024-01-18T15:45:05.868Z,25.40
2024-01-18T15:47:56.913Z,20.27
2024-01-18T15:50:49.771Z,23.90
2024-01-18T15:53:40.956Z,27.40
2024-01-18T15:56:30.192Z,26.97
2024-01-18T15:59:16.903Z,21.97
2024-01-18T16:02:04.190Z,18.77
2024-01-18T16:04:51.492Z,21.67
2024-01-18T16:07:47.032Z,18.50
2024-01-18T16:10:36.158Z,21.17
2024-01-18T16:13:27.225Z,25.07
2024-01-18T16:16:22.007Z,21.50
2024-01-18T16:19:10.556Z,21.20
2024-01-18T16:21:58.590Z,21.77
2024-01-18T16:24:49.320Z,21.27
2024-01-18T16:27:40.053Z,20.67
2024-01-18T16:30:31.166Z,23.13
2024-01-18T16:33:24.472Z,20.67
2024-01-18T16:36:11.221Z,22.60
2024-01-18T16:38:57.907Z,25.63
2024-01-18T16:41:52.883Z,22.13
2024-01-18T16:44:39.969Z,20.43
2024-01-18T16:47:29.262Z,26.67
2024-01-18T16:50:16.723Z,25.43
2024-01-18T16:53:05.769Z,22.70
2024-01-18T16:55:52.691Z,18.80
2024-01-18T16:58:41.263Z,22.23
2024-01-18T17:01:28.488Z,26.60
2024-01-18T17:04:18.075Z,20.93
2024-01-18T17:07:05.935Z,23.93
2024-01-18T17:09:56.924Z,32.67
2024-01-18T17:12:43.979Z,19.60
2024-01-18T17:15:35.578Z,18.23
2024-01-18T17:18:23.556Z,18.80
2024-01-18T17:21:13.340Z,20.43
2024-01-18T17:24:00.555Z,23.23
2024-01-18T17:26:47.467Z,18.67
2024-01-18T17:29:36.549Z,23.57
2024-01-18T17:32:27.125Z,14.03
2024-01-18T17:35:14.649Z,24.67
2024-01-18T17:38:04.109Z,20.50
2024-01-18T17:40:53.163Z,24.57
2024-01-18T17:43:44.423Z,25.10
2024-01-18T17:46:34.904Z,19.93
2024-01-18T17:49:30.449Z,18.97
2024-01-18T17:52:26.490Z,15.23
2024-01-18T17:55:19.430Z,21.47
2024-01-18T17:58:06.415Z,17.40
2024-01-18T18:00:55.882Z,19.88
2024-01-18T18:03:42.398Z,19.20
2024-01-18T18:06:33.042Z,17.27
2024-01-18T18:09:19.759Z,23.27
2024-01-18T18:12:11.621Z,24.47
2024-01-18T18:15:00.669Z,22.17
2024-01-18T18:17:50.159Z,35.23
2024-01-18T18:20:39.164Z,19.05
2024-01-18T18:23:37.322Z,16.98
2024-01-18T18:26:27.029Z,25.50
2024-01-18T18:29:13.689Z,20.67
2024-01-18T18:32:03.142Z,22.23
2024-01-18T18:34:55.071Z,20.17
2024-01-18T18:37:44.312Z,34.90
2024-01-18T18:40:34.957Z,21.50
2024-01-18T18:43:22.604Z,22.93
2024-01-18T18:46:12.553Z,26.80
2024-01-18T18:49:27.449Z,24.57
2024-01-18T18:52:14.590Z,28.20
2024-01-18T18:55:02.590Z,19.37
2024-01-18T18:57:53.698Z,20.90
2024-01-18T19:00:43.098Z,21.65
2024-01-18T19:03:34.137Z,20.57
2024-01-18T19:06:23.068Z,18.93
2024-01-18T19:09:11.761Z,19.85
2024-01-18T19:12:00.675Z,23.90
2024-01-18T19:14:53.859Z,21.07
2024-01-18T19:17:40.569Z,20.45
2024-01-18T19:20:27.618Z,22.85
2024-01-18T19:23:14.633Z,25.23
2024-01-18T19:26:07.677Z,20.50
2024-01-18T19:28:54.569Z,19.17
2024-01-18T19:31:58.221Z,22.90
2024-01-18T19:34:45.318Z,22.15
2024-01-18T19:37:33.564Z,16.17
2024-01-18T19:40:22.904Z,19.77
2024-01-18T19:43:15.087Z,17.13
2024-01-18T19:46:06.705Z,15.68
2024-01-18T19:48:57.957Z,24.63
2024-01-18T19:51:45.606Z,16.87
2024-01-18T19:54:35.147Z,18.50
2024-01-18T19:57:26.528Z,23.58
2024-01-18T20:00:17.101Z,18.07
2024-01-18T20:03:03.959Z,14.70
2024-01-18T20:06:01.425Z,18.13
2024-01-18T20:08:51.841Z,17.63
2024-01-18T20:11:40.791Z,16.63
2024-01-18T20:14:30.352Z,17.83
2024-01-18T20:17:17.221Z,22.43
2024-01-18T20:20:04.256Z,18.45
2024-01-18T20:22:53.622Z,22.63
2024-01-18T20:25:40.834Z,16.92
2024-01-18T20:28:32.207Z,14.20
2024-01-18T20:31:19.104Z,25.50
2024-01-18T20:34:09.912Z,18.10
2024-01-18T20:36:56.813Z,19.48
2024-01-18T20:39:52.228Z,19.02
2024-01-18T20:42:42.260Z,14.35
2024-01-18T20:45:29.204Z,18.40
2024-01-18T20:48:20.723Z,16.20
2024-01-18T20:51:12.603Z,17.80
2024-01-18T20:54:01.106Z,12.93
2024-01-18T20:56:52.713Z,19.50
2024-01-18T20:59:42.985Z,15.02
2024-01-18T21:02:32.429Z,20.73
2024-01-18T21:05:19.427Z,21.45
2024-01-18T21:08:09.751Z,12.80
2024-01-18T21:11:02.820Z,12.48
2024-01-18T21:13:54.636Z,17.60
2024-01-18T21:16:41.906Z,15.10
2024-01-18T21:19:29.619Z,14.38
2024-01-18T21:22:21.756Z,14.27
2024-01-18T21:25:12.308Z,13.00
2024-01-18T21:28:05.979Z,14.75
2024-01-18T21:31:01.008Z,16.38
2024-01-18T21:33:48.552Z,15.80
2024-01-18T21:36:40.274Z,15.95
2024-01-18T21:39:29.801Z,17.55
2024-01-18T21:42:19.412Z,10.83
2024-01-18T21:45:08.921Z,11.75
2024-01-18T21:48:04.603Z,12.38
2024-01-18T21:51:00.542Z,16.67
2024-01-18T21:53:53.011Z,12.00
2024-01-18T21:56:40.468Z,10.85
2024-01-18T21:59:39.239Z,14.93
2024-01-18T22:02:33.091Z,18.75
2024-01-18T22:05:21.633Z,14.68
2024-01-18T22:08:10.803Z,14.48
2024-01-18T22:11:02.108Z,13.00
2024-01-18T22:13:49.034Z,12.98
2024-01-18T22:16:38.163Z,14.98
2024-01-18T22:19:39.401Z,9.70
2024-01-18T22:22:58.121Z,13.20
2024-01-18T22:25:47.303Z,9.73
2024-01-18T22:28:39.485Z,13.88
2024-01-18T22:31:26.053Z,15.38
2024-01-18T22:34:13.590Z,13.65
2024-01-18T22:37:02.720Z,17.27
2024-01-18T22:39:51.138Z,13.85
2024-01-18T22:42:40.020Z,16.95
2024-01-18T22:45:29.036Z,13.98
2024-01-18T22:48:19.238Z,22.25
2024-01-18T22:51:06.769Z,14.02
2024-01-18T22:53:53.308Z,9.30
2024-01-18T22:56:46.530Z,10.05
2024-01-18T22:59:33.294Z,11.80
2024-01-18T23:02:20.056Z,14.48
2024-01-18T23:05:09.727Z,10.23
2024-01-18T23:07:58.275Z,13.20
2024-01-18T23:10:48.463Z,17.33
2024-01-18T23:13:36.971Z,14.63
2024-01-18T23:16:27.005Z,23.25
2024-01-18T23:19:41.437Z,13.00
2024-01-18T23:22:30.985Z,17.75
2024-01-18T23:25:18.692Z,23.35
2024-01-18T23:28:09.036Z,11.45
2024-01-18T23:30:57.074Z,19.58
2024-01-18T23:33:46.085Z,13.52
2024-01-18T23:36:35.127Z,14.32
2024-01-18T23:39:21.803Z,19.20
2024-01-18T23:42:08.862Z,12.93
2024-01-18T23:44:55.832Z,12.13
2024-01-18T23:47:44.359Z,15.48
2024-01-18T23:50:31.759Z,15.32
2024-01-18T23:53:18.762Z,11.02
2024-01-18T23:56:12.325Z,16.08
2024-01-18T23:59:01.819Z,22.55
